sensor_id;sensor_type;location;lat;lon;timestamp;pressure;altitude;pressure_sealevel;temperature;humidity
70256;BME280;57669;52.624;-1.688;2023-04-21T00:01:38;101376.09;;;4.21;58.80
70256;BME280;57669;52.624;-1.688;2023-04-21T00:04:04;101376.26;;;4.88;58.04
70256;BME280;57669;52.624;-1.688;2023-04-21T00:06:29;101379.58;;;5.11;57.03
70256;BME280;57669;52.624;-1.688;2023-04-21T00:08:54;101371.75;;;6.17;54.28
70256;BME280;57669;52.624;-1.688;2023-04-21T00:11:20;101368.96;;;5.35;56.16
70256;BME280;57669;52.624;-1.688;2023-04-21T00:13:44;101378.48;;;4.30;58.91
70256;BME280;57669;52.624;-1.688;2023-04-21T00:16:10;101371.57;;;4.15;60.21
70256;BME280;57669;52.624;-1.688;2023-04-21T00:18:35;101362.81;;;4.41;59.19
70256;BME280;57669;52.624;-1.688;2023-04-21T00:21:01;101368.94;;;4.52;58.98
70256;BME280;57669;52.624;-1.688;2023-04-21T00:23:26;101364.17;;;3.96;60.63
70256;BME280;57669;52.624;-1.688;2023-04-21T00:25:51;101355.60;;;4.03;61.61
70256;BME280;57669;52.624;-1.688;2023-04-21T00:28:17;101349.19;;;4.28;60.99
70256;BME280;57669;52.624;-1.688;2023-04-21T00:30:42;101355.02;;;4.29;60.68
70256;BME280;57669;52.624;-1.688;2023-04-21T00:33:07;101344.97;;;4.31;60.51
70256;BME280;57669;52.624;-1.688;2023-04-21T00:35:33;101340.71;;;4.46;60.46
70256;BME280;57669;52.624;-1.688;2023-04-21T00:37:58;101344.40;;;4.50;58.93
70256;BME280;57669;52.624;-1.688;2023-04-21T00:40:24;101341.01;;;3.80;61.83
70256;BME280;57669;52.624;-1.688;2023-04-21T00:42:49;101336.06;;;4.09;61.31
70256;BME280;57669;52.624;-1.688;2023-04-21T00:45:14;101338.62;;;4.18;60.80
70256;BME280;57669;52.624;-1.688;2023-04-21T00:47:40;101341.08;;;4.24;61.01
70256;BME280;57669;52.624;-1.688;2023-04-21T00:50:06;101341.01;;;3.77;61.05
70256;BME280;57669;52.624;-1.688;2023-04-21T00:52:32;101347.25;;;3.97;63.06
70256;BME280;57669;52.624;-1.688;2023-04-21T00:54:56;101342.88;;;4.56;60.92
70256;BME280;57669;52.624;-1.688;2023-04-21T00:57:22;101333.75;;;3.53;63.52
70256;BME280;57669;52.624;-1.688;2023-04-21T00:59:47;101339.08;;;3.21;64.03
70256;BME280;57669;52.624;-1.688;2023-04-21T01:02:14;101335.94;;;3.36;65.36
70256;BME280;57669;52.624;-1.688;2023-04-21T01:04:38;101336.62;;;3.28;64.55
70256;BME280;57669;52.624;-1.688;2023-04-21T01:07:04;101337.85;;;3.57;63.97
70256;BME280;57669;52.624;-1.688;2023-04-21T01:09:29;101334.33;;;3.68;63.01
70256;BME280;57669;52.624;-1.688;2023-04-21T01:12:00;101335.47;;;3.62;63.28
70256;BME280;57669;52.624;-1.688;2023-04-21T01:14:19;101335.72;;;4.94;60.39
70256;BME280;57669;52.624;-1.688;2023-04-21T01:16:45;101326.32;;;4.67;60.88
70256;BME280;57669;52.624;-1.688;2023-04-21T01:19:10;101323.06;;;4.66;60.41
70256;BME280;57669;52.624;-1.688;2023-04-21T01:21:38;101325.39;;;4.88;59.24
70256;BME280;57669;52.624;-1.688;2023-04-21T01:24:00;101318.57;;;4.85;58.60
70256;BME280;57669;52.624;-1.688;2023-04-21T01:26:25;101316.11;;;4.81;59.36
70256;BME280;57669;52.624;-1.688;2023-04-21T01:28:55;101318.75;;;4.19;60.74
70256;BME280;57669;52.624;-1.688;2023-04-21T01:31:17;101319.76;;;4.06;61.25
70256;BME280;57669;52.624;-1.688;2023-04-21T01:33:42;101316.82;;;4.67;58.57
70256;BME280;57669;52.624;-1.688;2023-04-21T01:36:08;101312.41;;;4.89;58.80
70256;BME280;57669;52.624;-1.688;2023-04-21T01:38:32;101308.08;;;4.50;60.42
70256;BME280;57669;52.624;-1.688;2023-04-21T01:40:58;101305.90;;;4.00;61.38
70256;BME280;57669;52.624;-1.688;2023-04-21T01:43:24;101304.21;;;4.49;61.09
70256;BME280;57669;52.624;-1.688;2023-04-21T01:45:48;101296.99;;;4.66;60.22
70256;BME280;57669;52.624;-1.688;2023-04-21T01:48:13;101295.93;;;3.59;62.83
70256;BME280;57669;52.624;-1.688;2023-04-21T01:50:39;101290.63;;;4.08;62.69
70256;BME280;57669;52.624;-1.688;2023-04-21T01:53:04;101282.42;;;3.66;63.32
70256;BME280;57669;52.624;-1.688;2023-04-21T01:55:29;101278.67;;;4.39;61.23
70256;BME280;57669;52.624;-1.688;2023-04-21T01:57:54;101286.69;;;4.45;61.35
70256;BME280;57669;52.624;-1.688;2023-04-21T02:00:20;101274.20;;;4.60;60.16
70256;BME280;57669;52.624;-1.688;2023-04-21T02:02:45;101276.16;;;3.99;62.03
70256;BME280;57669;52.624;-1.688;2023-04-21T02:05:10;101273.81;;;5.11;59.90
70256;BME280;57669;52.624;-1.688;2023-04-21T02:07:36;101271.04;;;4.73;60.83
70256;BME280;57669;52.624;-1.688;2023-04-21T02:10:01;101265.07;;;4.63;60.49
70256;BME280;57669;52.624;-1.688;2023-04-21T02:12:26;101266.64;;;5.38;58.55
70256;BME280;57669;52.624;-1.688;2023-04-21T02:14:51;101266.57;;;6.08;57.80
70256;BME280;57669;52.624;-1.688;2023-04-21T02:17:17;101259.36;;;5.09;57.64
70256;BME280;57669;52.624;-1.688;2023-04-21T02:19:42;101264.32;;;5.92;56.10
70256;BME280;57669;52.624;-1.688;2023-04-21T02:22:08;101261.01;;;5.17;57.60
70256;BME280;57669;52.624;-1.688;2023-04-21T02:24:33;101264.89;;;4.58;58.86
70256;BME280;57669;52.624;-1.688;2023-04-21T02:26:59;101260.05;;;5.36;56.42
70256;BME280;57669;52.624;-1.688;2023-04-21T02:29:24;101257.83;;;5.79;56.71
70256;BME280;57669;52.624;-1.688;2023-04-21T02:31:50;101254.85;;;4.67;59.04
70256;BME280;57669;52.624;-1.688;2023-04-21T02:34:15;101250.55;;;4.03;60.07
70256;BME280;57669;52.624;-1.688;2023-04-21T02:36:40;101244.84;;;4.75;58.67
70256;BME280;57669;52.624;-1.688;2023-04-21T02:39:06;101250.09;;;5.40;57.32
70256;BME280;57669;52.624;-1.688;2023-04-21T02:41:31;101242.98;;;4.41;59.95
70256;BME280;57669;52.624;-1.688;2023-04-21T02:43:57;101233.56;;;5.09;57.95
70256;BME280;57669;52.624;-1.688;2023-04-21T02:46:22;101232.81;;;5.79;56.02
70256;BME280;57669;52.624;-1.688;2023-04-21T02:48:48;101227.08;;;5.74;56.16
70256;BME280;57669;52.624;-1.688;2023-04-21T02:51:13;101219.96;;;5.66;56.51
70256;BME280;57669;52.624;-1.688;2023-04-21T02:53:38;101222.33;;;6.24;54.18
70256;BME280;57669;52.624;-1.688;2023-04-21T02:56:04;101219.58;;;7.01;52.12
70256;BME280;57669;52.624;-1.688;2023-04-21T02:58:29;101219.40;;;6.22;53.79
70256;BME280;57669;52.624;-1.688;2023-04-21T03:00:55;101213.82;;;7.01;52.52
70256;BME280;57669;52.624;-1.688;2023-04-21T03:03:20;101207.48;;;6.31;53.48
70256;BME280;57669;52.624;-1.688;2023-04-21T03:05:45;101204.11;;;7.84;49.49
70256;BME280;57669;52.624;-1.688;2023-04-21T03:08:11;101202.95;;;7.86;48.88
70256;BME280;57669;52.624;-1.688;2023-04-21T03:10:36;101198.09;;;7.80;50.03
70256;BME280;57669;52.624;-1.688;2023-04-21T03:13:01;101197.33;;;7.06;51.24
70256;BME280;57669;52.624;-1.688;2023-04-21T03:15:26;101193.75;;;7.48;51.13
70256;BME280;57669;52.624;-1.688;2023-04-21T03:17:52;101187.70;;;8.01;49.92
70256;BME280;57669;52.624;-1.688;2023-04-21T03:20:17;101186.64;;;6.79;51.33
70256;BME280;57669;52.624;-1.688;2023-04-21T03:22:42;101180.41;;;6.75;51.66
70256;BME280;57669;52.624;-1.688;2023-04-21T03:25:07;101184.33;;;7.17;52.00
70256;BME280;57669;52.624;-1.688;2023-04-21T03:27:32;101179.20;;;6.81;52.36
70256;BME280;57669;52.624;-1.688;2023-04-21T03:29:58;101181.04;;;6.14;53.15
70256;BME280;57669;52.624;-1.688;2023-04-21T03:32:22;101179.85;;;6.99;51.97
70256;BME280;57669;52.624;-1.688;2023-04-21T03:34:48;101177.27;;;7.82;50.85
70256;BME280;57669;52.624;-1.688;2023-04-21T03:37:13;101176.20;;;7.15;50.89
70256;BME280;57669;52.624;-1.688;2023-04-21T03:39:38;101176.48;;;6.83;51.63
70256;BME280;57669;52.624;-1.688;2023-04-21T03:42:04;101176.47;;;6.40;52.71
70256;BME280;57669;52.624;-1.688;2023-04-21T03:44:30;101179.70;;;5.94;55.33
70256;BME280;57669;52.624;-1.688;2023-04-21T03:46:55;101171.42;;;6.48;54.15
70256;BME280;57669;52.624;-1.688;2023-04-21T03:49:21;101157.42;;;5.21;57.33
70256;BME280;57669;52.624;-1.688;2023-04-21T03:51:46;101147.37;;;6.50;55.57
70256;BME280;57669;52.624;-1.688;2023-04-21T03:54:11;101150.14;;;4.40;60.04
70256;BME280;57669;52.624;-1.688;2023-04-21T03:56:37;101143.50;;;5.06;58.56
70256;BME280;57669;52.624;-1.688;2023-04-21T03:59:03;101132.27;;;4.57;59.90
70256;BME280;57669;52.624;-1.688;2023-04-21T04:01:28;101125.07;;;4.32;60.78
70256;BME280;57669;52.624;-1.688;2023-04-21T04:03:54;101110.93;;;5.15;58.94
70256;BME280;57669;52.624;-1.688;2023-04-21T04:06:20;101104.44;;;5.24;58.58
70256;BME280;57669;52.624;-1.688;2023-04-21T04:08:45;101087.39;;;4.53;60.30
70256;BME280;57669;52.624;-1.688;2023-04-21T04:11:11;101089.84;;;5.33;58.40
70256;BME280;57669;52.624;-1.688;2023-04-21T04:13:36;101082.67;;;5.78;57.20
70256;BME280;57669;52.624;-1.688;2023-04-21T04:16:01;101071.60;;;5.61;57.40
70256;BME280;57669;52.624;-1.688;2023-04-21T04:18:27;101061.43;;;4.96;59.76
70256;BME280;57669;52.624;-1.688;2023-04-21T04:20:52;101061.70;;;4.78;60.85
70256;BME280;57669;52.624;-1.688;2023-04-21T04:23:18;101064.93;;;3.87;62.02
70256;BME280;57669;52.624;-1.688;2023-04-21T04:25:43;101054.93;;;3.98;62.38
70256;BME280;57669;52.624;-1.688;2023-04-21T04:28:09;101050.91;;;5.40;58.64
70256;BME280;57669;52.624;-1.688;2023-04-21T04:30:35;101049.78;;;3.98;62.50
70256;BME280;57669;52.624;-1.688;2023-04-21T04:33:00;101049.64;;;4.62;61.33
70256;BME280;57669;52.624;-1.688;2023-04-21T04:35:25;101050.10;;;4.53;61.17
70256;BME280;57669;52.624;-1.688;2023-04-21T04:37:51;101046.29;;;4.63;60.41
70256;BME280;57669;52.624;-1.688;2023-04-21T04:40:16;101041.55;;;5.83;57.51
70256;BME280;57669;52.624;-1.688;2023-04-21T04:42:41;101039.31;;;5.67;57.86
70256;BME280;57669;52.624;-1.688;2023-04-21T04:45:07;101034.52;;;4.89;59.44
70256;BME280;57669;52.624;-1.688;2023-04-21T04:47:31;101019.48;;;5.32;58.30
70256;BME280;57669;52.624;-1.688;2023-04-21T04:49:57;101016.31;;;4.54;60.38
70256;BME280;57669;52.624;-1.688;2023-04-21T04:52:22;100993.25;;;6.18;57.35
70256;BME280;57669;52.624;-1.688;2023-04-21T04:54:47;100995.02;;;5.54;59.56
70256;BME280;57669;52.624;-1.688;2023-04-21T04:57:13;101008.10;;;4.80;60.83
70256;BME280;57669;52.624;-1.688;2023-04-21T04:59:39;101014.45;;;5.32;60.90
70256;BME280;57669;52.624;-1.688;2023-04-21T05:02:04;101006.14;;;6.51;58.25
70256;BME280;57669;52.624;-1.688;2023-04-21T05:04:29;101001.78;;;6.68;57.98
70256;BME280;57669;52.624;-1.688;2023-04-21T05:06:55;100998.98;;;6.56;57.13
70256;BME280;57669;52.624;-1.688;2023-04-21T05:09:21;100998.33;;;6.05;58.84
70256;BME280;57669;52.624;-1.688;2023-04-21T05:11:46;100993.56;;;6.31;59.14
70256;BME280;57669;52.624;-1.688;2023-04-21T05:14:11;100994.92;;;6.87;56.84
70256;BME280;57669;52.624;-1.688;2023-04-21T05:16:37;100994.92;;;7.38;55.40
70256;BME280;57669;52.624;-1.688;2023-04-21T05:19:03;101000.87;;;7.70;54.54
70256;BME280;57669;52.624;-1.688;2023-04-21T05:21:29;100996.16;;;7.53;54.52
70256;BME280;57669;52.624;-1.688;2023-04-21T05:23:54;101002.29;;;8.97;51.82
70256;BME280;57669;52.624;-1.688;2023-04-21T05:26:19;100992.46;;;8.77;52.40
70256;BME280;57669;52.624;-1.688;2023-04-21T05:28:44;100987.03;;;8.67;51.81
70256;BME280;57669;52.624;-1.688;2023-04-21T05:31:09;100976.89;;;6.97;55.11
70256;BME280;57669;52.624;-1.688;2023-04-21T05:33:35;100980.87;;;8.26;53.16
70256;BME280;57669;52.624;-1.688;2023-04-21T05:36:01;100986.49;;;9.03;51.62
70256;BME280;57669;52.624;-1.688;2023-04-21T05:38:27;100984.59;;;8.25;54.99
70256;BME280;57669;52.624;-1.688;2023-04-21T05:40:53;100984.54;;;8.16;54.50
70256;BME280;57669;52.624;-1.688;2023-04-21T05:43:17;100976.72;;;7.36;56.71
70256;BME280;57669;52.624;-1.688;2023-04-21T05:45:43;100982.06;;;8.86;53.41
70256;BME280;57669;52.624;-1.688;2023-04-21T05:48:08;100983.50;;;8.19;54.10
70256;BME280;57669;52.624;-1.688;2023-04-21T05:50:33;100983.52;;;8.51;52.98
70256;BME280;57669;52.624;-1.688;2023-04-21T05:52:59;100979.59;;;7.83;54.81
70256;BME280;57669;52.624;-1.688;2023-04-21T05:55:24;100973.92;;;7.62;54.44
70256;BME280;57669;52.624;-1.688;2023-04-21T05:57:50;100968.31;;;9.34;51.84
70256;BME280;57669;52.624;-1.688;2023-04-21T06:00:16;100965.18;;;8.31;53.64
70256;BME280;57669;52.624;-1.688;2023-04-21T06:02:41;100963.47;;;8.75;52.32
70256;BME280;57669;52.624;-1.688;2023-04-21T06:05:06;100957.13;;;8.38;53.24
70256;BME280;57669;52.624;-1.688;2023-04-21T06:07:32;100959.04;;;8.62;52.97
70256;BME280;57669;52.624;-1.688;2023-04-21T06:09:57;100960.64;;;7.56;55.47
70256;BME280;57669;52.624;-1.688;2023-04-21T06:12:22;100956.91;;;9.27;52.16
70256;BME280;57669;52.624;-1.688;2023-04-21T06:14:48;100962.00;;;8.41;53.17
70256;BME280;57669;52.624;-1.688;2023-04-21T06:17:15;100961.93;;;9.20;52.36
70256;BME280;57669;52.624;-1.688;2023-04-21T06:19:38;100950.93;;;9.60;51.79
70256;BME280;57669;52.624;-1.688;2023-04-21T06:22:04;100947.87;;;7.91;54.87
70256;BME280;57669;52.624;-1.688;2023-04-21T06:24:31;100937.92;;;7.23;57.08
70256;BME280;57669;52.624;-1.688;2023-04-21T06:26:55;100935.74;;;8.24;54.85
70256;BME280;57669;52.624;-1.688;2023-04-21T06:29:20;100938.12;;;6.72;57.71
70256;BME280;57669;52.624;-1.688;2023-04-21T06:31:45;100926.18;;;6.75;59.22
70256;BME280;57669;52.624;-1.688;2023-04-21T06:34:11;100916.60;;;7.86;56.00
70256;BME280;57669;52.624;-1.688;2023-04-21T06:36:36;100907.20;;;8.76;54.39
70256;BME280;57669;52.624;-1.688;2023-04-21T06:39:02;100891.21;;;6.72;58.46
70256;BME280;57669;52.624;-1.688;2023-04-21T06:41:27;100879.63;;;6.66;58.50
70256;BME280;57669;52.624;-1.688;2023-04-21T06:43:52;100873.99;;;6.26;60.96
70256;BME280;57669;52.624;-1.688;2023-04-21T06:46:18;100875.27;;;6.05;61.82
70256;BME280;57669;52.624;-1.688;2023-04-21T06:48:43;100870.02;;;4.56;65.04
70256;BME280;57669;52.624;-1.688;2023-04-21T06:51:08;100856.04;;;6.33;61.95
70256;BME280;57669;52.624;-1.688;2023-04-21T06:53:34;100854.39;;;6.84;60.89
70256;BME280;57669;52.624;-1.688;2023-04-21T06:55:59;100840.29;;;6.98;60.02
70256;BME280;57669;52.624;-1.688;2023-04-21T06:58:25;100844.92;;;5.40;63.78
70256;BME280;57669;52.624;-1.688;2023-04-21T07:00:51;100830.13;;;5.70;62.38
70256;BME280;57669;52.624;-1.688;2023-04-21T07:03:17;100822.04;;;5.65;63.28
70256;BME280;57669;52.624;-1.688;2023-04-21T07:05:42;100823.97;;;5.58;63.30
70256;BME280;57669;52.624;-1.688;2023-04-21T07:08:08;100817.17;;;4.53;66.51
70256;BME280;57669;52.624;-1.688;2023-04-21T07:10:33;100826.16;;;4.89;65.37
70256;BME280;57669;52.624;-1.688;2023-04-21T07:12:58;100811.84;;;6.48;61.82
70256;BME280;57669;52.624;-1.688;2023-04-21T07:15:24;100811.04;;;4.84;64.80
70256;BME280;57669;52.624;-1.688;2023-04-21T07:17:49;100812.57;;;4.75;66.60
70256;BME280;57669;52.624;-1.688;2023-04-21T07:20:15;100808.23;;;5.92;64.36
70256;BME280;57669;52.624;-1.688;2023-04-21T07:22:40;100800.02;;;5.73;63.76
70256;BME280;57669;52.624;-1.688;2023-04-21T07:25:06;100804.59;;;5.70;63.74
70256;BME280;57669;52.624;-1.688;2023-04-21T07:27:31;100807.96;;;5.12;66.27
70256;BME280;57669;52.624;-1.688;2023-04-21T07:29:56;100807.71;;;4.29;69.51
70256;BME280;57669;52.624;-1.688;2023-04-21T07:32:22;100796.57;;;4.07;69.82
70256;BME280;57669;52.624;-1.688;2023-04-21T07:34:49;100798.73;;;3.56;71.92
70256;BME280;57669;52.624;-1.688;2023-04-21T07:37:12;100791.57;;;4.11;69.50
70256;BME280;57669;52.624;-1.688;2023-04-21T07:39:37;100783.73;;;5.66;67.51
70256;BME280;57669;52.624;-1.688;2023-04-21T07:42:03;100774.64;;;4.24;68.62
70256;BME280;57669;52.624;-1.688;2023-04-21T07:44:28;100776.96;;;4.53;68.73
70256;BME280;57669;52.624;-1.688;2023-04-21T07:46:53;100777.43;;;4.19;69.97
70256;BME280;57669;52.624;-1.688;2023-04-21T07:49:19;100786.03;;;4.61;68.45
70256;BME280;57669;52.624;-1.688;2023-04-21T07:51:44;100784.58;;;5.52;66.17
70256;BME280;57669;52.624;-1.688;2023-04-21T07:54:10;100774.35;;;5.74;63.40
70256;BME280;57669;52.624;-1.688;2023-04-21T07:56:35;100770.63;;;5.04;66.71
70256;BME280;57669;52.624;-1.688;2023-04-21T07:59:01;100771.32;;;5.01;66.86
70256;BME280;57669;52.624;-1.688;2023-04-21T08:01:26;100766.55;;;5.38;67.38
70256;BME280;57669;52.624;-1.688;2023-04-21T08:03:52;100765.36;;;6.35;63.49
70256;BME280;57669;52.624;-1.688;2023-04-21T08:06:17;100763.76;;;5.47;66.13
70256;BME280;57669;52.624;-1.688;2023-04-21T08:08:43;100762.64;;;5.51;65.84
70256;BME280;57669;52.624;-1.688;2023-04-21T08:11:08;100756.91;;;5.90;65.52
70256;BME280;57669;52.624;-1.688;2023-04-21T08:13:34;100758.77;;;5.90;65.66
70256;BME280;57669;52.624;-1.688;2023-04-21T08:16:00;100762.91;;;6.54;63.93
70256;BME280;57669;52.624;-1.688;2023-04-21T08:18:25;100760.87;;;5.98;64.70
70256;BME280;57669;52.624;-1.688;2023-04-21T08:20:50;100751.10;;;5.73;65.59
70256;BME280;57669;52.624;-1.688;2023-04-21T08:23:15;100760.69;;;5.09;69.05
70256;BME280;57669;52.624;-1.688;2023-04-21T08:25:41;100760.12;;;6.72;65.12
70256;BME280;57669;52.624;-1.688;2023-04-21T08:28:06;100749.58;;;6.58;63.29
70256;BME280;57669;52.624;-1.688;2023-04-21T08:30:32;100744.35;;;6.41;64.05
70256;BME280;57669;52.624;-1.688;2023-04-21T08:32:58;100745.85;;;6.84;63.43
70256;BME280;57669;52.624;-1.688;2023-04-21T08:35:23;100747.49;;;6.76;63.93
70256;BME280;57669;52.624;-1.688;2023-04-21T08:37:49;100747.44;;;6.41;65.36
70256;BME280;57669;52.624;-1.688;2023-04-21T08:40:14;100749.75;;;6.90;64.92
70256;BME280;57669;52.624;-1.688;2023-04-21T08:42:39;100743.08;;;5.30;69.25
70256;BME280;57669;52.624;-1.688;2023-04-21T08:45:06;100735.55;;;5.05;70.30
70256;BME280;57669;52.624;-1.688;2023-04-21T08:47:31;100737.48;;;5.83;69.82
70256;BME280;57669;52.624;-1.688;2023-04-21T08:49:56;100737.40;;;5.44;70.12
70256;BME280;57669;52.624;-1.688;2023-04-21T08:52:20;100730.94;;;5.83;69.01
70256;BME280;57669;52.624;-1.688;2023-04-21T08:54:46;100732.89;;;5.22;69.53
70256;BME280;57669;52.624;-1.688;2023-04-21T08:57:11;100734.15;;;5.04;71.29
70256;BME280;57669;52.624;-1.688;2023-04-21T08:59:36;100735.13;;;4.39;73.10
70256;BME280;57669;52.624;-1.688;2023-04-21T09:02:07;100737.54;;;4.98;72.25
70256;BME280;57669;52.624;-1.688;2023-04-21T09:04:29;100733.64;;;4.65;73.63
70256;BME280;57669;52.624;-1.688;2023-04-21T09:06:52;100735.19;;;4.82;72.89
70256;BME280;57669;52.624;-1.688;2023-04-21T09:09:18;100735.94;;;4.13;76.03
70256;BME280;57669;52.624;-1.688;2023-04-21T09:11:43;100733.66;;;4.45;75.66
70256;BME280;57669;52.624;-1.688;2023-04-21T09:14:08;100733.69;;;4.07;75.96
70256;BME280;57669;52.624;-1.688;2023-04-21T09:16:35;100729.18;;;4.46;76.45
70256;BME280;57669;52.624;-1.688;2023-04-21T09:18:59;100725.40;;;4.38;74.49
70256;BME280;57669;52.624;-1.688;2023-04-21T09:21:27;100729.99;;;4.68;75.02
70256;BME280;57669;52.624;-1.688;2023-04-21T09:23:50;100722.17;;;4.93;73.92
70256;BME280;57669;52.624;-1.688;2023-04-21T09:26:15;100716.47;;;4.71;73.47
70256;BME280;57669;52.624;-1.688;2023-04-21T09:28:41;100722.19;;;4.96;72.02
70256;BME280;57669;52.624;-1.688;2023-04-21T09:31:12;100724.67;;;5.13;71.27
70256;BME280;57669;52.624;-1.688;2023-04-21T09:33:32;100721.84;;;4.56;73.92
70256;BME280;57669;52.624;-1.688;2023-04-21T09:36:00;100721.83;;;5.72;71.41
70256;BME280;57669;52.624;-1.688;2023-04-21T09:38:22;100723.41;;;5.36;72.38
70256;BME280;57669;52.624;-1.688;2023-04-21T09:40:56;100719.64;;;5.14;72.83
70256;BME280;57669;52.624;-1.688;2023-04-21T09:43:14;100715.20;;;4.61;75.10
70256;BME280;57669;52.624;-1.688;2023-04-21T09:45:39;100717.49;;;4.78;74.14
70256;BME280;57669;52.624;-1.688;2023-04-21T09:48:06;100721.93;;;6.14;70.67
70256;BME280;57669;52.624;-1.688;2023-04-21T09:50:30;100719.32;;;6.40;68.00
70256;BME280;57669;52.624;-1.688;2023-04-21T09:52:56;100716.31;;;5.71;69.92
70256;BME280;57669;52.624;-1.688;2023-04-21T09:55:24;100720.99;;;6.99;66.28
70256;BME280;57669;52.624;-1.688;2023-04-21T09:57:47;100719.85;;;5.95;68.88
70256;BME280;57669;52.624;-1.688;2023-04-21T10:00:13;100722.40;;;6.13;68.77
70256;BME280;57669;52.624;-1.688;2023-04-21T10:02:42;100724.70;;;4.93;70.92
70256;BME280;57669;52.624;-1.688;2023-04-21T10:05:03;100729.76;;;4.62;72.42
70256;BME280;57669;52.624;-1.688;2023-04-21T10:07:28;100732.09;;;5.06;70.70
70256;BME280;57669;52.624;-1.688;2023-04-21T10:09:55;100731.76;;;4.83;71.81
70256;BME280;57669;52.624;-1.688;2023-04-21T10:12:19;100732.76;;;5.15;71.50
70256;BME280;57669;52.624;-1.688;2023-04-21T10:14:44;100726.76;;;6.40;67.81
70256;BME280;57669;52.624;-1.688;2023-04-21T10:17:10;100725.03;;;6.38;66.92
70256;BME280;57669;52.624;-1.688;2023-04-21T10:19:37;100722.48;;;5.70;68.19
70256;BME280;57669;52.624;-1.688;2023-04-21T10:22:01;100723.64;;;6.70;65.92
70256;BME280;57669;52.624;-1.688;2023-04-21T10:24:28;100721.19;;;6.40;66.50
70256;BME280;57669;52.624;-1.688;2023-04-21T10:26:51;100719.71;;;6.17;66.53
70256;BME280;57669;52.624;-1.688;2023-04-21T10:31:50;100720.65;;;7.31;65.79
70256;BME280;57669;52.624;-1.688;2023-04-21T10:34:13;100719.29;;;7.62;64.14
70256;BME280;57669;52.624;-1.688;2023-04-21T10:36:32;100710.59;;;8.01;62.71
70256;BME280;57669;52.624;-1.688;2023-04-21T10:39:00;100716.42;;;6.87;63.94
70256;BME280;57669;52.624;-1.688;2023-04-21T10:41:25;100713.65;;;6.17;66.26
70256;BME280;57669;52.624;-1.688;2023-04-21T10:43:49;100709.06;;;6.72;63.92
70256;BME280;57669;52.624;-1.688;2023-04-21T10:48:37;100706.01;;;7.55;63.67
70256;BME280;57669;52.624;-1.688;2023-04-21T10:51:03;100704.20;;;6.45;66.91
70256;BME280;57669;52.624;-1.688;2023-04-21T10:53:40;100702.00;;;7.00;65.74
70256;BME280;57669;52.624;-1.688;2023-04-21T10:55:53;100704.10;;;5.31;68.51
70256;BME280;57669;52.624;-1.688;2023-04-21T10:58:19;100706.59;;;7.62;63.72
70256;BME280;57669;52.624;-1.688;2023-04-21T11:00:44;100708.05;;;7.11;63.30
70256;BME280;57669;52.624;-1.688;2023-04-21T11:03:09;100703.44;;;6.35;65.80
70256;BME280;57669;52.624;-1.688;2023-04-21T11:05:36;100696.57;;;5.96;67.14
70256;BME280;57669;52.624;-1.688;2023-04-21T11:08:06;100701.79;;;6.01;67.36
70256;BME280;57669;52.624;-1.688;2023-04-21T11:10:25;100697.71;;;5.45;68.52
70256;BME280;57669;52.624;-1.688;2023-04-21T11:12:56;100690.72;;;7.06;64.14
70256;BME280;57669;52.624;-1.688;2023-04-21T11:15:16;100689.89;;;6.86;65.19
70256;BME280;57669;52.624;-1.688;2023-04-21T11:17:44;100687.50;;;5.10;70.76
70256;BME280;57669;52.624;-1.688;2023-04-21T11:20:07;100680.35;;;5.86;68.16
70256;BME280;57669;52.624;-1.688;2023-04-21T11:22:32;100685.62;;;6.55;69.66
70256;BME280;57669;52.624;-1.688;2023-04-21T11:24:58;100680.92;;;5.81;70.30
70256;BME280;57669;52.624;-1.688;2023-04-21T11:27:26;100684.05;;;6.49;69.70
70256;BME280;57669;52.624;-1.688;2023-04-21T11:29:49;100686.78;;;7.97;66.41
70256;BME280;57669;52.624;-1.688;2023-04-21T11:32:15;100686.00;;;7.39;66.11
70256;BME280;57669;52.624;-1.688;2023-04-21T11:34:39;100677.13;;;9.02;62.90
70256;BME280;57669;52.624;-1.688;2023-04-21T11:37:06;100682.39;;;9.12;61.26
70256;BME280;57669;52.624;-1.688;2023-04-21T11:39:29;100678.72;;;7.95;62.72
70256;BME280;57669;52.624;-1.688;2023-04-21T11:41:54;100680.35;;;7.82;63.73
70256;BME280;57669;52.624;-1.688;2023-04-21T11:46:45;100673.18;;;9.10;59.70
70256;BME280;57669;52.624;-1.688;2023-04-21T11:49:12;100670.90;;;8.25;59.53
70256;BME280;57669;52.624;-1.688;2023-04-21T11:51:37;100674.42;;;7.47;61.63
70256;BME280;57669;52.624;-1.688;2023-04-21T11:54:04;100679.60;;;6.97;62.26
70256;BME280;57669;52.624;-1.688;2023-04-21T11:56:27;100681.54;;;6.78;64.66
70256;BME280;57669;52.624;-1.688;2023-04-21T11:58:52;100683.06;;;7.24;64.43
70256;BME280;57669;52.624;-1.688;2023-04-21T12:01:19;100681.70;;;6.69;65.97
70256;BME280;57669;52.624;-1.688;2023-04-21T12:03:49;100675.15;;;7.79;63.10
70256;BME280;57669;52.624;-1.688;2023-04-21T12:06:09;100679.51;;;7.10;62.87
70256;BME280;57669;52.624;-1.688;2023-04-21T12:08:34;100672.25;;;7.49;62.96
70256;BME280;57669;52.624;-1.688;2023-04-21T12:11:01;100679.47;;;7.61;63.97
70256;BME280;57669;52.624;-1.688;2023-04-21T12:13:26;100679.33;;;8.55;61.55
70256;BME280;57669;52.624;-1.688;2023-04-21T12:15:50;100668.25;;;8.61;60.26
70256;BME280;57669;52.624;-1.688;2023-04-21T12:18:16;100680.35;;;7.30;60.28
70256;BME280;57669;52.624;-1.688;2023-04-21T12:20:48;100666.36;;;8.89;59.03
70256;BME280;57669;52.624;-1.688;2023-04-21T12:23:07;100667.62;;;8.90;57.39
70256;BME280;57669;52.624;-1.688;2023-04-21T12:25:32;100672.78;;;9.32;55.79
70256;BME280;57669;52.624;-1.688;2023-04-21T12:27:59;100677.75;;;8.21;58.16
70256;BME280;57669;52.624;-1.688;2023-04-21T12:30:24;100683.20;;;8.82;55.69
70256;BME280;57669;52.624;-1.688;2023-04-21T12:32:49;100682.40;;;9.94;53.28
70256;BME280;57669;52.624;-1.688;2023-04-21T12:35:15;100684.69;;;8.08;56.20
70256;BME280;57669;52.624;-1.688;2023-04-21T12:37:41;100680.04;;;8.59;53.89
70256;BME280;57669;52.624;-1.688;2023-04-21T12:40:08;100679.54;;;8.94;53.64
70256;BME280;57669;52.624;-1.688;2023-04-21T12:42:33;100679.46;;;8.53;56.17
70256;BME280;57669;52.624;-1.688;2023-04-21T12:44:58;100675.72;;;7.98;58.64
70256;BME280;57669;52.624;-1.688;2023-04-21T12:47:24;100669.59;;;8.31;54.34